Time;durP1;ratioP1;P1;durP2;ratioP2;P2;SDS_P1;SDS_P2;PMS_P1;PMS_P2;Temp;Humidity;BMP_temperature;BMP_pressure;BME280_temperature;BME280_humidity;BME280_pressure;Samples;Min_cycle;Max_cycle;Signal;HPM_P1;HPM_P2
2020/12/24 00:00:26;;;;;;;8.00;6.43;;;;;;;8.80;100.00;95664.38;1044640;28;20079;-44
2020/12/24 00:00:57;;;;;;;9.47;6.67;;;;;;;8.78;100.00;95658.53;1044137;28;20066;-43
2020/12/24 00:01:27;;;;;;;8.57;6.53;;;;;;;8.75;100.00;95661.53;1044119;28;20025;-43
2020/12/24 00:01:58;;;;;;;8.40;6.57;;;;;;;8.75;100.00;95661.53;1044241;28;20026;-44
2020/12/24 00:02:28;;;;;;;8.63;6.40;;;;;;;8.78;100.00;95661.16;1044256;28;20559;-43
2020/12/24 00:02:59;;;;;;;8.90;6.90;;;;;;;8.76;100.00;95663.16;1040072;28;20021;-44
2020/12/24 00:03:29;;;;;;;9.00;6.43;;;;;;;8.77;100.00;95662.13;1040270;28;20458;-42
2020/12/24 00:04:00;;;;;;;9.93;6.50;;;;;;;8.79;100.00;95670.66;1036198;28;20044;-42
2020/12/24 00:04:30;;;;;;;7.00;5.97;;;;;;;8.76;100.00;95664.97;1036276;28;20025;-43
2020/12/24 00:05:01;;;;;;;10.80;7.97;;;;;;;8.78;100.00;95669.03;1039836;28;20088;-42
2020/12/24 00:05:31;;;;;;;10.20;7.47;;;;;;;8.75;100.00;95674.66;1039994;28;20484;-43
2020/12/24 00:06:02;;;;;;;11.10;8.40;;;;;;;8.76;100.00;95667.59;1044137;28;20033;-44
2020/12/24 00:06:32;;;;;;;12.30;7.93;;;;;;;8.78;100.00;95682.16;1044200;28;20044;-43
2020/12/24 00:07:03;;;;;;;10.73;8.10;;;;;;;8.81;100.00;95679.13;1044534;28;20051;-43
2020/12/24 00:07:34;;;;;;;9.70;8.02;;;;;;;8.78;100.00;95683.97;1044104;28;20116;-45
2020/12/24 00:08:04;;;;;;;10.70;9.13;;;;;;;8.84;100.00;95685.81;1044222;28;20029;-43
2020/12/24 00:08:36;;;;;;;10.27;7.57;;;;;;;8.87;100.00;95693.31;1040011;28;20025;-43
2020/12/24 00:09:06;;;;;;;8.88;7.20;;;;;;;8.85;100.00;95695.28;1040508;28;20589;-42
2020/12/24 00:09:37;;;;;;;10.13;8.00;;;;;;;8.80;100.00;95695.06;1044342;28;20079;-43
2020/12/24 00:10:07;;;;;;;8.30;6.20;;;;;;;8.80;100.00;95695.88;1044076;28;20029;-44
2020/12/24 00:10:38;;;;;;;8.50;5.93;;;;;;;8.81;100.00;95694.88;1044732;28;20448;-43
2020/12/24 00:11:08;;;;;;;6.73;3.80;;;;;;;8.84;100.00;95710.25;1044733;28;20025;-42
2020/12/24 00:11:39;;;;;;;6.50;3.60;;;;;;;8.86;100.00;95687.22;1044534;28;20095;-42
2020/12/24 00:12:09;;;;;;;4.63;2.60;;;;;;;8.86;100.00;95696.91;1044486;28;20025;-43
2020/12/24 00:12:40;;;;;;;6.97;2.77;;;;;;;8.82;100.00;95688.63;1044773;28;20021;-42
2020/12/24 00:13:10;;;;;;;4.63;2.47;;;;;;;8.83;100.00;95686.81;1044502;28;20028;-44
2020/12/24 00:13:41;;;;;;;5.70;2.10;;;;;;;8.81;100.00;95684.38;1044893;28;20071;-42
2020/12/24 00:14:11;;;;;;;3.43;2.20;;;;;;;8.85;100.00;95683.00;1044682;28;20029;-43
2020/12/24 00:14:42;;;;;;;5.67;2.43;;;;;;;8.88;100.00;95685.22;1044673;28;20127;-43
2020/12/24 00:15:12;;;;;;;3.50;2.00;;;;;;;8.84;100.00;95691.06;1044728;28;20024;-43
2020/12/24 00:15:43;;;;;;;3.47;2.20;;;;;;;8.72;100.00;95688.16;1044738;28;20377;-42
2020/12/24 00:16:14;;;;;;;4.60;2.38;;;;;;;8.73;100.00;95681.94;1044619;28;20438;-42
2020/12/24 00:16:44;;;;;;;4.90;2.53;;;;;;;8.69;100.00;95689.34;1044486;28;20064;-42
2020/12/24 00:17:15;;;;;;;5.60;2.40;;;;;;;8.70;100.00;95688.38;1044572;28;20104;-43
2020/12/24 00:17:45;;;;;;;4.03;2.53;;;;;;;8.73;100.00;95691.59;1044472;28;20503;-42
2020/12/24 00:18:16;;;;;;;3.90;2.40;;;;;;;8.69;100.00;95684.13;1044599;28;20020;-42
2020/12/24 00:18:47;;;;;;;4.93;2.50;;;;;;;8.68;100.00;95687.75;1044425;28;20033;-42
2020/12/24 00:19:17;;;;;;;4.33;2.30;;;;;;;8.65;100.00;95687.31;1044695;28;20051;-42
2020/12/24 00:19:48;;;;;;;6.07;2.50;;;;;;;8.71;100.00;95681.28;1044781;28;20085;-42
2020/12/24 00:20:18;;;;;;;4.37;2.30;;;;;;;8.67;100.00;95685.31;1044946;28;20111;-42
2020/12/24 00:20:49;;;;;;;3.80;2.37;;;;;;;8.70;100.00;95671.81;1044617;28;20056;-42
2020/12/24 00:21:19;;;;;;;5.13;2.40;;;;;;;8.72;100.00;95677.66;1044553;28;20020;-42
2020/12/24 00:21:50;;;;;;;4.30;2.27;;;;;;;8.76;100.00;95675.47;1044775;28;20040;-42
2020/12/24 00:22:20;;;;;;;4.37;2.40;;;;;;;8.76;100.00;95672.84;1044170;28;20454;-42
2020/12/24 00:22:51;;;;;;;3.53;2.13;;;;;;;8.69;100.00;95660.50;1044242;28;20093;-42
2020/12/24 00:23:21;;;;;;;4.73;2.37;;;;;;;8.69;100.00;95664.94;1044202;28;20032;-42
2020/12/24 00:23:52;;;;;;;4.57;2.53;;;;;;;8.63;100.00;95666.53;1044169;28;20547;-42
2020/12/24 00:24:22;;;;;;;4.33;2.17;;;;;;;8.70;100.00;95672.63;1044618;28;20024;-42
2020/12/24 00:24:53;;;;;;;4.03;2.30;;;;;;;8.70;100.00;95669.19;1044331;28;20352;-42
2020/12/24 00:25:23;;;;;;;3.50;2.00;;;;;;;8.66;100.00;95665.31;1044791;28;20425;-42
2020/12/24 00:25:54;;;;;;;4.43;2.10;;;;;;;8.60;100.00;95672.16;1044652;28;20044;-42
2020/12/24 00:26:24;;;;;;;4.10;2.50;;;;;;;8.58;100.00;95665.47;1044263;28;20021;-42
2020/12/24 00:26:55;;;;;;;5.37;2.30;;;;;;;8.61;100.00;95670.34;1044754;28;20025;-42
2020/12/24 00:27:25;;;;;;;4.27;2.40;;;;;;;8.61;100.00;95668.53;1045434;28;20017;-42
2020/12/24 00:27:56;;;;;;;5.67;2.40;;;;;;;8.60;100.00;95661.66;1045023;28;20449;-46
2020/12/24 00:28:26;;;;;;;5.10;2.60;;;;;;;8.61;100.00;95665.91;1045252;28;20025;-42
2020/12/24 00:28:57;;;;;;;4.53;2.57;;;;;;;8.62;100.00;95662.25;1045831;28;20024;-42
2020/12/24 00:29:27;;;;;;;5.13;2.20;;;;;;;8.63;100.00;95665.72;1045684;28;20013;-43
2020/12/24 00:29:58;;;;;;;3.43;2.40;;;;;;;8.61;100.00;95658.03;1045288;28;20044;-43
2020/12/24 00:30:28;;;;;;;4.03;2.30;;;;;;;8.64;100.00;95659.44;1045322;28;20037;-42
2020/12/24 00:30:59;;;;;;;4.50;2.20;;;;;;;8.73;100.00;95660.94;1044789;28;20017;-44
2020/12/24 00:31:29;;;;;;;4.63;2.20;;;;;;;8.66;100.00;95658.25;1044815;28;20017;-44
2020/12/24 00:32:00;;;;;;;4.63;2.37;;;;;;;8.66;100.00;95667.94;1045218;28;20078;-43
2020/12/24 00:32:31;;;;;;;5.10;2.10;;;;;;;8.70;100.00;95656.88;1044821;28;20024;-43
2020/12/24 00:33:01;;;;;;;3.87;2.10;;;;;;;8.68;100.00;95658.06;1045720;28;20528;-45
2020/12/24 00:33:31;;;;;;;4.00;2.20;;;;;;;8.74;100.00;95656.47;1045173;28;20469;-44
2020/12/24 00:34:02;;;;;;;3.50;2.17;;;;;;;8.77;100.00;95659.50;1045773;28;20390;-42
2020/12/24 00:34:33;;;;;;;4.43;2.40;;;;;;;8.68;100.00;95664.13;1045599;28;20043;-43
2020/12/24 00:35:03;;;;;;;4.43;2.60;;;;;;;8.60;100.00;95658.22;1045271;28;20028;-42
2020/12/24 00:35:34;;;;;;;5.07;2.40;;;;;;;8.61;100.00;95657.22;1045434;28;20118;-43
2020/12/24 00:36:04;;;;;;;5.00;2.90;;;;;;;8.62;100.00;95664.09;1045808;28;20055;-43
2020/12/24 00:36:35;;;;;;;4.23;2.30;;;;;;;8.61;100.00;95659.84;1045189;28;20017;-43
2020/12/24 00:37:05;;;;;;;5.33;2.57;;;;;;;8.68;100.00;95666.75;1045452;28;20372;-43
2020/12/24 00:37:36;;;;;;;3.93;2.23;;;;;;;8.69;100.00;95664.94;1045637;28;20017;-43
2020/12/24 00:38:06;;;;;;;5.23;2.50;;;;;;;8.74;100.00;95662.53;1045294;28;20454;-43
2020/12/24 00:38:37;;;;;;;5.80;2.50;;;;;;;8.71;100.00;95660.28;1045352;28;20028;-43
2020/12/24 00:39:07;;;;;;;4.70;2.43;;;;;;;8.69;100.00;95662.31;1045684;28;20021;-44
2020/12/24 00:39:38;;;;;;;4.43;2.37;;;;;;;8.69;100.00;95670.19;1045376;28;20025;-42
2020/12/24 00:40:08;;;;;;;4.30;2.60;;;;;;;8.71;100.00;95669.00;1045317;28;20461;-43
2020/12/24 00:40:39;;;;;;;3.80;2.30;;;;;;;8.76;100.00;95667.59;1045038;28;20009;-43
2020/12/24 00:41:09;;;;;;;4.70;2.50;;;;;;;8.75;100.00;95674.66;1045038;28;20358;-45
2020/12/24 00:41:40;;;;;;;4.43;2.40;;;;;;;8.75;100.00;95677.28;1045141;28;20013;-44
2020/12/24 00:42:10;;;;;;;6.67;2.40;;;;;;;8.69;100.00;95672.81;1045141;28;20047;-43
2020/12/24 00:42:41;;;;;;;3.73;2.20;;;;;;;8.70;100.00;95677.88;1044904;28;20017;-42
2020/12/24 00:43:11;;;;;;;4.77;2.30;;;;;;;8.73;100.00;95676.69;1044649;28;20362;-42
2020/12/24 00:43:42;;;;;;;5.90;2.40;;;;;;;8.71;100.00;95674.25;1044795;28;20055;-43
2020/12/24 00:44:12;;;;;;;4.63;1.93;;;;;;;8.69;100.00;95676.25;1045161;28;20096;-42
2020/12/24 00:44:43;;;;;;;4.33;2.20;;;;;;;8.69;100.00;95670.19;1044954;28;20025;-42
2020/12/24 00:45:13;;;;;;;3.73;2.13;;;;;;;8.65;100.00;95664.50;1044977;28;20020;-42
2020/12/24 00:45:44;;;;;;;5.50;2.43;;;;;;;8.61;100.00;95670.34;1045432;28;20024;-44
2020/12/24 00:46:14;;;;;;;6.17;2.30;;;;;;;8.65;100.00;95661.06;1044777;28;20009;-45
2020/12/24 00:46:45;;;;;;;4.77;2.00;;;;;;;8.63;100.00;95669.13;1044648;28;20060;-42
2020/12/24 00:47:15;;;;;;;4.03;2.07;;;;;;;8.57;100.00;95675.16;1044751;28;20421;-44
2020/12/24 00:47:46;;;;;;;3.93;1.80;;;;;;;8.61;100.00;95678.19;1044594;28;20401;-47
2020/12/24 00:48:17;;;;;;;3.20;1.63;;;;;;;8.66;100.00;95683.69;1045100;28;20025;-42
2020/12/24 00:48:47;;;;;;;3.00;1.60;;;;;;;8.65;100.00;95682.06;1045127;28;20021;-43
2020/12/24 00:49:18;;;;;;;3.17;1.80;;;;;;;8.66;100.00;95683.69;1044669;28;20020;-43
2020/12/24 00:49:48;;;;;;;3.17;1.83;;;;;;;8.66;100.00;95681.06;1045058;28;20057;-43
2020/12/24 00:50:19;;;;;;;3.13;1.70;;;;;;;8.66;100.00;95670.56;1045265;28;20027;-42
2020/12/24 00:50:49;;;;;;;3.87;1.73;;;;;;;8.64;100.00;95675.19;1041329;28;20026;-42
2020/12/24 00:51:20;;;;;;;6.90;2.10;;;;;;;8.60;100.00;95671.34;1045512;28;20024;-42
2020/12/24 00:51:50;;;;;;;4.13;1.73;;;;;;;8.57;100.00;95667.28;1044954;28;20009;-45
2020/12/24 00:52:21;;;;;;;4.90;2.10;;;;;;;8.56;100.00;95678.78;1044899;28;20024;-42
2020/12/24 00:52:51;;;;;;;4.07;1.90;;;;;;;8.59;100.00;95667.91;1045393;28;20070;-42
2020/12/24 00:53:21;;;;;;;2.73;1.53;;;;;;;8.60;100.00;95671.34;1045585;28;20024;-45
2020/12/24 00:53:52;;;;;;;5.67;1.93;;;;;;;8.57;100.00;95659.41;1045714;28;20067;-43
2020/12/24 00:54:22;;;;;;;2.90;1.60;;;;;;;8.59;100.00;95659.22;1045606;28;20576;-44
2020/12/24 00:54:53;;;;;;;4.40;1.73;;;;;;;8.60;100.00;95660.84;1044722;28;20020;-43
2020/12/24 00:55:23;;;;;;;3.10;1.60;;;;;;;8.59;100.00;95675.78;1044919;28;20438;-43
2020/12/24 00:55:54;;;;;;;3.50;1.67;;;;;;;8.60;100.00;95668.72;1045289;28;20009;-43
2020/12/24 00:56:24;;;;;;;5.80;1.80;;;;;;;8.48;100.00;95666.63;1045489;28;20458;-42
2020/12/24 00:56:55;;;;;;;3.07;1.70;;;;;;;8.53;100.00;95666.06;1045426;28;20013;-42
2020/12/24 00:57:25;;;;;;;5.10;2.00;;;;;;;8.46;100.00;95663.41;1045886;28;20079;-42
2020/12/24 00:57:56;;;;;;;4.63;2.00;;;;;;;8.51;100.00;95668.88;1045819;28;20035;-42
2020/12/24 00:58:26;;;;;;;3.20;1.60;;;;;;;8.46;100.00;95665.22;1045598;28;20032;-42
2020/12/24 00:58:57;;;;;;;4.20;2.00;;;;;;;8.47;100.00;95666.81;1045792;28;20068;-42
2020/12/24 00:59:27;;;;;;;2.90;1.50;;;;;;;8.46;100.00;95666.03;1045517;28;20044;-42
2020/12/24 00:59:58;;;;;;;4.23;1.57;;;;;;;8.45;100.00;95663.59;1045404;28;20025;-41
2020/12/24 01:00:28;;;;;;;4.13;1.70;;;;;;;8.43;100.00;95660.34;1045521;28;20035;-41
2020/12/24 01:00:59;;;;;;;3.73;1.80;;;;;;;8.40;100.00;95664.16;1045919;28;20037;-42
2020/12/24 01:01:29;;;;;;;4.83;1.60;;;;;;;8.45;100.00;95664.41;1045674;28;20037;-42
2020/12/24 01:02:00;;;;;;;3.50;1.53;;;;;;;8.44;100.00;95660.16;1045605;28;20071;-42
2020/12/24 01:02:30;;;;;;;4.93;1.60;;;;;;;8.43;100.00;95663.75;1045906;28;20089;-41
2020/12/24 01:03:01;;;;;;;3.50;1.50;;;;;;;8.47;100.00;95661.56;1044993;28;20036;-42
2020/12/24 01:03:32;;;;;;;5.03;2.00;;;;;;;8.44;100.00;95660.16;1044935;28;20373;-43
2020/12/24 01:04:02;;;;;;;2.83;1.53;;;;;;;8.42;100.00;95664.75;1045461;28;20044;-42
2020/12/24 01:04:33;;;;;;;3.53;1.70;;;;;;;8.41;100.00;95663.16;1041466;28;20025;-42
2020/12/24 01:05:04;;;;;;;3.00;1.47;;;;;;;8.39;100.00;95659.88;1045165;28;20025;-41
2020/12/24 01:05:35;;;;;;;4.30;1.90;;;;;;;8.36;100.00;95655.81;1045343;28;20025;-43
2020/12/24 01:06:05;;;;;;;4.23;1.67;;;;;;;8.38;100.00;95662.69;1045412;28;20426;-42
2020/12/24 01:06:36;;;;;;;3.10;1.50;;;;;;;8.41;100.00;95660.53;1045097;28;20013;-42
2020/12/24 01:07:06;;;;;;;3.43;1.50;;;;;;;8.46;100.00;95666.03;1044995;28;20100;-42
2020/12/24 01:07:37;;;;;;;4.33;1.60;;;;;;;8.45;100.00;95658.34;1044932;28;20396;-42
2020/12/24 01:08:07;;;;;;;3.73;1.50;;;;;;;8.40;100.00;95661.53;1045100;28;20013;-42
2020/12/24 01:08:38;;;;;;;3.43;1.60;;;;;;;8.34;100.00;95664.91;1045310;28;20028;-42
2020/12/24 01:09:09;;;;;;;3.33;1.40;;;;;;;8.38;100.00;95662.69;1045445;28;20115;-42
2020/12/24 01:09:39;;;;;;;4.07;1.43;;;;;;;8.37;100.00;95654.03;1045406;28;20112;-42
2020/12/24 01:10:10;;;;;;;3.60;1.40;;;;;;;8.40;100.00;95660.72;1045624;28;20021;-43
2020/12/24 01:10:41;;;;;;;3.35;1.55;;;;;;;8.38;100.00;95660.91;1045221;28;20052;-42
2020/12/24 01:11:11;;;;;;;3.57;1.60;;;;;;;8.35;100.00;95663.88;1045613;28;20354;-43
2020/12/24 01:11:42;;;;;;;2.93;1.40;;;;;;;8.40;100.00;95661.53;1045512;28;20071;-42
2020/12/24 01:12:12;;;;;;;2.70;1.27;;;;;;;8.35;100.00;95658.66;1045505;28;20024;-43
2020/12/24 01:12:43;;;;;;;3.53;1.60;;;;;;;8.32;100.00;95652.00;1045364;28;20120;-42
2020/12/24 01:13:13;;;;;;;2.30;1.20;;;;;;;8.32;100.00;95653.78;1045478;28;20020;-43
2020/12/24 01:13:44;;;;;;;3.30;1.50;;;;;;;8.36;100.00;95655.81;1045210;28;20535;-42
2020/12/24 01:14:14;;;;;;;3.30;1.53;;;;;;;8.36;100.00;95652.41;1045024;28;20028;-42
2020/12/24 01:14:45;;;;;;;5.60;1.80;;;;;;;8.39;100.00;95659.88;1045492;28;20016;-43
2020/12/24 01:15:15;;;;;;;3.50;1.70;;;;;;;8.39;100.00;95659.88;1041030;28;20067;-43
2020/12/24 01:15:46;;;;;;;3.17;1.57;;;;;;;8.42;100.00;95656.06;1041173;28;20159;-42
2020/12/24 01:16:17;;;;;;;3.30;1.50;;;;;;;8.40;100.00;95658.91;1041255;28;20044;-43
2020/12/24 01:16:47;;;;;;;3.73;1.43;;;;;;;8.40;100.00;95658.91;1041174;28;20041;-42
2020/12/24 01:17:18;;;;;;;3.17;1.40;;;;;;;8.44;100.00;95654.09;1045118;28;20064;-43
2020/12/24 01:17:49;;;;;;;3.40;1.63;;;;;;;8.38;100.00;95658.28;1045105;28;20084;-43
2020/12/24 01:18:19;;;;;;;3.13;1.55;;;;;;;8.37;100.00;95659.28;1044921;28;20017;-42
2020/12/24 01:18:50;;;;;;;3.20;1.70;;;;;;;8.37;100.00;95664.53;1045005;28;20029;-43
2020/12/24 01:19:20;;;;;;;4.27;2.03;;;;;;;8.34;100.00;95659.66;1045576;28;20021;-43
2020/12/24 01:19:51;;;;;;;3.90;1.73;;;;;;;8.28;100.00;95661.22;1045598;28;20052;-42
2020/12/24 01:20:21;;;;;;;3.73;1.87;;;;;;;8.25;100.00;95660.81;1045281;28;20075;-43
2020/12/24 01:20:52;;;;;;;4.23;1.60;;;;;;;8.23;100.00;95661.00;1044687;28;20040;-44
2020/12/24 01:21:22;;;;;;;3.40;1.40;;;;;;;8.25;100.00;95668.69;1044592;28;20104;-44
2020/12/24 01:21:53;;;;;;;3.37;1.23;;;;;;;8.27;100.00;95664.06;1044460;28;20037;-43
2020/12/24 01:22:23;;;;;;;2.83;1.20;;;;;;;8.26;100.00;95667.66;1044897;28;20104;-42
2020/12/24 01:22:54;;;;;;;4.43;1.37;;;;;;;8.22;100.00;95667.25;1045515;28;20024;-42
2020/12/24 01:23:24;;;;;;;3.83;1.50;;;;;;;8.19;100.00;95663.19;1045647;28;20489;-43
2020/12/24 01:23:55;;;;;;;2.87;1.50;;;;;;;8.18;100.00;95666.00;1045356;28;20052;-43
2020/12/24 01:24:25;;;;;;;4.60;1.50;;;;;;;8.22;100.00;95658.59;1045668;28;20021;-43
2020/12/24 01:24:56;;;;;;;3.73;1.50;;;;;;;8.19;100.00;95671.06;1045559;28;20013;-43
2020/12/24 01:25:27;;;;;;;3.07;1.50;;;;;;;8.23;100.00;95665.44;1045193;28;20009;-42
2020/12/24 01:25:57;;;;;;;3.60;1.40;;;;;;;8.24;100.00;95667.06;1045074;28;20044;-42
2020/12/24 01:26:28;;;;;;;2.83;1.27;;;;;;;8.26;100.00;95662.41;1045768;28;20024;-43
2020/12/24 01:26:58;;;;;;;2.73;1.33;;;;;;;8.25;100.00;95661.63;1045235;28;20733;-43
2020/12/24 01:27:29;;;;;;;3.83;1.33;;;;;;;8.19;100.00;95660.56;1045220;28;20009;-45
2020/12/24 01:27:59;;;;;;;3.77;1.47;;;;;;;8.25;100.00;95663.44;1044853;28;20021;-43
2020/12/24 01:28:30;;;;;;;3.23;1.47;;;;;;;8.26;100.00;95665.88;1045018;28;20405;-43
2020/12/24 01:29:00;;;;;;;3.53;1.40;;;;;;;8.21;100.00;95664.81;1044760;28;20028;-43
2020/12/24 01:29:31;;;;;;;2.77;1.30;;;;;;;8.18;100.00;95663.38;1044934;28;20090;-43
2020/12/24 01:30:02;;;;;;;2.53;1.20;;;;;;;8.24;100.00;95667.06;1045110;28;20025;-43
2020/12/24 01:30:32;;;;;;;4.03;1.55;;;;;;;8.23;100.00;95661.00;1045763;28;20017;-44
2020/12/24 01:31:04;;;;;;;2.83;1.30;;;;;;;8.20;100.00;95653.53;1045546;28;20044;-44
2020/12/24 01:31:34;;;;;;;3.63;1.30;;;;;;;8.17;100.00;95659.16;1045645;28;20366;-43
2020/12/24 01:32:05;;;;;;;5.07;1.40;;;;;;;8.19;100.00;95657.94;1044938;28;20044;-42
2020/12/24 01:32:35;;;;;;;2.50;1.20;;;;;;;8.24;100.00;95665.22;1045193;28;20494;-42
2020/12/24 01:33:06;;;;;;;3.10;1.30;;;;;;;8.24;100.00;95661.81;1045400;28;20041;-44
2020/12/24 01:33:36;;;;;;;2.90;1.30;;;;;;;8.24;100.00;95662.59;1045268;28;20087;-42
2020/12/24 01:34:07;;;;;;;3.27;1.13;;;;;;;8.23;100.00;95661.00;1044948;28;20081;-42
2020/12/24 01:34:37;;;;;;;4.10;1.30;;;;;;;8.27;100.00;95664.06;1045343;28;20461;-43
2020/12/24 01:35:08;;;;;;;3.47;1.33;;;;;;;8.26;100.00;95660.63;1045676;28;20013;-44
2020/12/24 01:35:38;;;;;;;4.23;1.27;;;;;;;8.21;100.00;95659.56;1045105;28;20374;-43
2020/12/24 01:36:09;;;;;;;3.87;1.23;;;;;;;8.22;100.00;95664.63;1044634;28;20032;-43
2020/12/24 01:36:39;;;;;;;2.57;1.20;;;;;;;8.22;100.00;95663.81;1044933;28;20073;-45
2020/12/24 01:37:10;;;;;;;3.43;1.50;;;;;;;8.18;100.00;95664.22;1045167;28;20020;-42
2020/12/24 01:37:40;;;;;;;4.23;1.47;;;;;;;8.22;100.00;95658.59;1045077;28;20127;-43
2020/12/24 01:38:11;;;;;;;3.40;1.33;;;;;;;8.19;100.00;95665.00;1044216;28;20112;-44
2020/12/24 01:38:41;;;;;;;3.47;1.40;;;;;;;8.27;100.00;95666.69;1044638;28;20017;-43
2020/12/24 01:39:12;;;;;;;2.80;1.30;;;;;;;8.29;100.00;95662.03;1045281;28;20063;-43
2020/12/24 01:39:42;;;;;;;2.87;1.13;;;;;;;8.32;100.00;95664.28;1044973;28;20021;-42
2020/12/24 01:40:13;;;;;;;3.00;1.20;;;;;;;8.28;100.00;95657.81;1045389;28;20426;-43
2020/12/24 01:40:43;;;;;;;3.57;1.27;;;;;;;8.26;100.00;95663.25;1045470;28;20113;-46
2020/12/24 01:41:14;;;;;;;3.33;1.40;;;;;;;8.24;100.00;95661.81;1044944;28;20025;-43
2020/12/24 01:41:47;;;;;;;3.23;1.30;;;;;;;8.22;100.00;95661.19;1045043;28;20060;-42
2020/12/24 01:42:19;;;;;;;3.03;1.40;;;;;;;8.24;100.00;95662.59;1041130;28;20075;-42
2020/12/24 01:42:49;;;;;;;3.90;1.63;;;;;;;8.27;100.00;95666.69;1045379;28;20029;-42
2020/12/24 01:43:20;;;;;;;3.23;1.23;;;;;;;8.26;100.00;95665.03;1045333;28;20054;-42
2020/12/24 01:43:50;;;;;;;3.30;1.40;;;;;;;8.25;100.00;95669.50;1044951;28;20151;-42
2020/12/24 01:44:21;;;;;;;4.90;1.60;;;;;;;8.26;100.00;95670.28;1045940;28;20028;-42
2020/12/24 01:44:52;;;;;;;3.40;1.40;;;;;;;8.27;100.00;95669.28;1045571;28;20013;-42
2020/12/24 01:45:22;;;;;;;4.17;1.33;;;;;;;8.25;100.00;95671.31;1045785;28;20099;-43
2020/12/24 01:45:54;;;;;;;3.00;1.40;;;;;;;8.23;100.00;95668.06;1045712;28;20020;-42
2020/12/24 01:46:25;;;;;;;4.28;1.45;;;;;;;8.29;100.00;95664.66;1045607;28;20423;-43
2020/12/24 01:46:55;;;;;;;2.93;1.23;;;;;;;8.29;100.00;95668.13;1045313;28;20013;-43
2020/12/24 01:47:26;;;;;;;2.97;1.50;;;;;;;8.20;100.00;95671.88;1045268;28;20267;-43
2020/12/24 01:47:56;;;;;;;2.43;1.10;;;;;;;8.25;100.00;95669.50;1044951;28;20082;-43
2020/12/24 01:48:27;;;;;;;3.77;1.53;;;;;;;8.17;100.00;95667.03;1044903;28;20024;-43
2020/12/24 01:48:57;;;;;;;6.67;1.40;;;;;;;8.18;100.00;95666.00;1044971;28;20048;-45
2020/12/24 01:49:28;;;;;;;2.90;1.20;;;;;;;8.14;100.00;95668.22;1045677;28;20021;-44
2020/12/24 01:49:58;;;;;;;4.17;1.53;;;;;;;8.14;100.00;95668.22;1045451;28;20369;-44
2020/12/24 01:50:29;;;;;;;5.87;1.30;;;;;;;8.18;100.00;95669.47;1045224;28;20017;-44
2020/12/24 01:50:59;;;;;;;2.53;1.20;;;;;;;8.17;100.00;95670.44;1044992;28;20099;-43
2020/12/24 01:51:30;;;;;;;3.47;1.20;;;;;;;8.21;100.00;95667.44;1044628;28;20575;-43
2020/12/24 01:52:01;;;;;;;3.22;1.35;;;;;;;8.15;100.00;95661.97;1044853;28;20477;-44
2020/12/24 01:52:38;;;;;;;3.57;1.30;;;;;;;8.10;100.00;95668.78;1045533;28;20025;-44
2020/12/24 01:53:09;;;;;;;4.70;1.77;;;;;;;8.06;100.00;95660.50;1044940;28;20024;-43
2020/12/24 01:53:39;;;;;;;2.50;1.20;;;;;;;8.08;100.00;95657.69;1036401;28;20152;-44
2020/12/24 01:54:10;;;;;;;4.80;1.40;;;;;;;8.13;100.00;95663.94;1032300;28;20037;-43
2020/12/24 01:54:40;;;;;;;4.23;1.53;;;;;;;8.14;100.00;95659.53;1028393;28;20062;-44
2020/12/24 01:55:11;;;;;;;3.03;1.30;;;;;;;8.16;100.00;95660.16;1024250;28;20031;-45
2020/12/24 01:55:41;;;;;;;3.73;1.50;;;;;;;8.09;100.00;95661.91;1032537;28;20442;-43
2020/12/24 01:56:12;;;;;;;4.03;1.67;;;;;;;8.08;100.00;95658.47;1036741;28;20057;-43
2020/12/24 01:56:42;;;;;;;4.17;1.30;;;;;;;8.09;100.00;95657.50;1036526;28;20044;-44
2020/12/24 01:57:13;;;;;;;2.93;1.10;;;;;;;8.12;100.00;95658.91;1044473;28;20028;-44
2020/12/24 01:57:43;;;;;;;2.70;1.20;;;;;;;8.16;100.00;95658.31;1036079;28;20030;-43
2020/12/24 01:58:14;;;;;;;3.60;1.30;;;;;;;8.14;100.00;95657.72;1036806;28;20088;-43
2020/12/24 01:58:48;;;;;;;3.00;1.40;;;;;;;8.14;100.00;95656.91;1040689;28;20029;-44
2020/12/24 01:59:18;;;;;;;4.35;1.40;;;;;;;8.17;100.00;95659.16;1041529;28;20013;-44
2020/12/24 01:59:49;;;;;;;4.07;1.50;;;;;;;8.08;100.00;95655.88;1045065;28;20025;-44
2020/12/24 02:00:19;;;;;;;3.80;1.60;;;;;;;8.12;100.00;95659.72;1045491;28;20457;-43
2020/12/24 02:00:50;;;;;;;2.73;1.23;;;;;;;8.15;100.00;95658.53;1044784;28;20020;-43
2020/12/24 02:01:20;;;;;;;3.07;1.30;;;;;;;8.13;100.00;95658.72;1044512;28;20025;-44
2020/12/24 02:01:51;;;;;;;5.57;1.20;;;;;;;8.08;100.00;95658.47;1044380;28;20111;-43
2020/12/24 02:02:22;;;;;;;2.57;1.00;;;;;;;8.07;100.00;95659.47;1040325;28;20036;-45
2020/12/24 02:02:52;;;;;;;2.57;1.30;;;;;;;8.03;100.00;95655.59;1040220;28;20449;-43
2020/12/24 02:03:23;;;;;;;2.03;1.00;;;;;;;8.12;100.00;95658.91;1044575;28;20025;-43
2020/12/24 02:03:53;;;;;;;3.07;1.10;;;;;;;8.14;100.00;95662.97;1044401;28;20021;-43
2020/12/24 02:04:24;;;;;;;5.37;1.37;;;;;;;8.19;100.00;95665.81;1044872;28;20017;-44
2020/12/24 02:04:54;;;;;;;3.90;1.37;;;;;;;8.14;100.00;95664.78;1044764;28;20064;-44
2020/12/24 02:05:25;;;;;;;2.73;1.17;;;;;;;8.07;100.00;95666.53;1045139;28;20021;-44
2020/12/24 02:05:57;;;;;;;2.80;1.17;;;;;;;8.07;100.00;95664.72;1045065;28;20457;-45
2020/12/24 02:06:27;;;;;;;4.18;1.40;;;;;;;8.06;100.00;95657.03;1040499;28;20039;-46
2020/12/24 02:06:58;;;;;;;2.23;1.00;;;;;;;8.07;100.00;95656.06;1040453;28;20162;-43
2020/12/24 02:07:28;;;;;;;2.47;1.23;;;;;;;8.09;100.00;95664.53;1040415;28;20022;-45
2020/12/24 02:07:59;;;;;;;3.93;1.37;;;;;;;8.12;100.00;95651.88;1036339;28;20059;-44
2020/12/24 02:08:29;;;;;;;2.77;1.10;;;;;;;8.13;100.00;95655.28;1040384;28;20032;-43
2020/12/24 02:08:59;;;;;;;3.60;1.10;;;;;;;8.14;100.00;95649.84;1040439;28;20404;-43
2020/12/24 02:09:30;;;;;;;2.40;1.10;;;;;;;8.17;100.00;95652.09;1040362;28;20363;-44
2020/12/24 02:10:01;;;;;;;2.13;1.10;;;;;;;8.17;100.00;95646.84;1040266;28;20343;-44
2020/12/24 02:10:31;;;;;;;2.60;1.13;;;;;;;8.18;100.00;95645.03;1040312;28;20033;-43
2020/12/24 02:11:02;;;;;;;3.80;1.30;;;;;;;8.18;100.00;95647.66;1040565;28;20025;-45
2020/12/24 02:11:32;;;;;;;3.00;1.10;;;;;;;8.18;100.00;95651.09;1044939;28;20021;-43
2020/12/24 02:12:03;;;;;;;3.90;1.17;;;;;;;8.17;100.00;95657.34;1044398;28;20074;-43
2020/12/24 02:12:33;;;;;;;2.50;1.13;;;;;;;8.15;100.00;95654.09;1044614;28;20500;-43
2020/12/24 02:13:04;;;;;;;2.63;1.00;;;;;;;8.17;100.00;95649.47;1044714;28;20021;-43
2020/12/24 02:13:34;;;;;;;3.27;1.40;;;;;;;8.16;100.00;95654.91;1044399;28;20477;-44
2020/12/24 02:14:05;;;;;;;4.47;1.20;;;;;;;8.18;100.00;95658.13;1044693;28;20420;-44
2020/12/24 02:14:35;;;;;;;2.50;1.17;;;;;;;8.19;100.00;95652.69;1044856;28;20032;-43
2020/12/24 02:15:06;;;;;;;2.63;1.23;;;;;;;8.16;100.00;95653.06;1044727;28;20017;-43
2020/12/24 02:15:36;;;;;;;2.63;1.20;;;;;;;8.19;100.00;95649.28;1044794;28;20028;-44
2020/12/24 02:16:07;;;;;;;3.40;1.20;;;;;;;8.15;100.00;95648.03;1044418;28;20039;-44
2020/12/24 02:16:38;;;;;;;3.03;1.27;;;;;;;8.14;100.00;95649.84;1044679;28;20496;-43
2020/12/24 02:17:08;;;;;;;4.13;1.40;;;;;;;8.12;100.00;95641.38;1044495;28;20024;-43
2020/12/24 02:17:39;;;;;;;3.97;1.47;;;;;;;8.12;100.00;95651.03;1044441;28;20343;-44
2020/12/24 02:18:09;;;;;;;3.00;1.33;;;;;;;8.13;100.00;95650.84;1044553;28;20020;-46
2020/12/24 02:18:40;;;;;;;3.73;1.40;;;;;;;8.08;100.00;95652.44;1044770;28;20017;-43
2020/12/24 02:19:10;;;;;;;2.70;1.20;;;;;;;8.11;100.00;95650.22;1045357;28;20021;-44
2020/12/24 02:19:41;;;;;;;4.03;1.30;;;;;;;8.14;100.00;95646.44;1044886;28;20438;-45
2020/12/24 02:20:11;;;;;;;3.80;1.17;;;;;;;8.19;100.00;95644.84;1044724;28;20025;-44
2020/12/24 02:20:43;;;;;;;2.87;1.20;;;;;;;8.22;100.00;95651.50;1044787;28;20021;-43
2020/12/24 02:21:13;;;;;;;3.85;1.40;;;;;;;8.25;100.00;95651.13;1044840;28;20334;-45
2020/12/24 02:21:44;;;;;;;4.90;1.40;;;;;;;8.24;100.00;95641.63;1044424;28;20024;-43
2020/12/24 02:22:14;;;;;;;3.07;1.27;;;;;;;8.21;100.00;95636.78;1044294;28;20024;-44
2020/12/24 02:22:45;;;;;;;4.97;1.30;;;;;;;8.23;100.00;95637.41;1044482;28;20028;-44
2020/12/24 02:23:15;;;;;;;3.03;1.20;;;;;;;8.24;100.00;95636.38;1044702;28;20028;-43
2020/12/24 02:23:46;;;;;;;2.67;1.20;;;;;;;8.25;100.00;95631.97;1044279;28;20469;-43
2020/12/24 02:24:16;;;;;;;2.77;1.17;;;;;;;8.25;100.00;95627.53;1044209;28;20079;-45